Meteo Giornale » Osservazioni meteo Austria » Graz-Thalerhof

ore: 20:20 - Osservazioni Meteo Graz-Thalerhof
Lat. 47° 0' N Lon. 15° 26' E Alt. 340 metri s.l.m.

sereno

21 °C

Sereno

Temp. 24 Ore

16 °C

27 °C

Nord

5.5 Km/h

Dew point 13 °C

Umidità 60 %

Visibilità  10 Km

Il sole sorge alle ore 06:17

Il sole tramonta alle ore 19:38

Data e Ora Cielo e Fenomeni T °C DP °C Um. % Pres. hPa Vis. km Vento km/h
Oggi h: 20:20 sereno Sereno 21 13 60 1020 10 N 5.5
Oggi h: 19:50 sereno Sereno 22 13 56 1020 10 E/SE 7.4
Oggi h: 19:20 poco_nuvoloso Poco Nuvoloso 23 13 53 1020 10 N 5.5
Oggi h: 18:50 sereno Sereno 25 12 44 1020 10 SE 13
Oggi h: 18:20 sereno Sereno 25 12 44 1020 10 SE 14.8
Oggi h: 17:50 sereno Sereno 26 12 41 1020 10 SE 14.8
Oggi h: 17:20 poco_nuvoloso Poco Nuvoloso 26 12 41 1020 10 SE 11.1
Oggi h: 16:50 poco_nuvoloso Poco Nuvoloso 27 12 39 1020 10 S 13
Oggi h: 16:20 poco_nuvoloso Poco Nuvoloso 26 13 44 1020 10 S/SE 13
Oggi h: 15:50 poco_nuvoloso Poco Nuvoloso 25 12 44 1020 10 S/SE 9.3
Oggi h: 15:20 nuvoloso Nuvoloso 26 12 41 1020 10 N 9.3
Oggi h: 14:50 molto_nuvoloso Molto Nuvoloso 25 12 44 1020 10 E 9.3
Oggi h: 14:20 poco_nuvoloso Poco Nuvoloso 25 11 41 1021 10 S/SE 7.4
Oggi h: 13:50 poco_nuvoloso Poco Nuvoloso 26 11 39 1021 10 N 9.3
Oggi h: 13:20 sereno Sereno 25 9 36 1021 10 N 5.5
Oggi h: 12:50 sereno Sereno 25 9 36 1021 10 NO 7.4
Oggi h: 12:20 sereno Sereno 25 11 41 1022 10 N 7.4
Oggi h: 11:50 poco_nuvoloso Poco Nuvoloso 24 11 43 1022 10 N 3.7
Oggi h: 11:20 poco_nuvoloso Poco Nuvoloso 23 15 60 1022 10 SE 7.4
Oggi h: 10:50 poco_nuvoloso Poco Nuvoloso 23 14 56 1022 10 N 5.5
Oggi h: 10:20 sereno Sereno 22 15 64 1022 10 N 1.8
Oggi h: 09:50 poco_nuvoloso Poco Nuvoloso 20 15 72 1022 10 N 1.8
Oggi h: 09:20 poco_nuvoloso Poco Nuvoloso 18 15 82 1022 10 N 1.8
Oggi h: 08:50 poco_nuvoloso Poco Nuvoloso 17 15 88 1021 10 O/SO 7.4
Oggi h: 08:20 poco_nuvoloso Poco Nuvoloso 17 15 88 1021 10 N 5.5
Oggi h: 07:50 poco_nuvoloso Poco Nuvoloso 16 15 93 1021 10 N 3.7
Oggi h: 07:20 sereno Sereno 16 15 93 1021 10 N 3.7
Oggi h: 06:50 sereno Sereno 16 15 93 1021 10 N 1.8
Oggi h: 06:20 sereno Sereno 16 15 93 1020 10 N 1.8
Oggi h: 05:50 sereno Sereno 16 15 93 1020 10 N 1.8
Oggi h: 05:20 sereno Sereno 16 15 93 1020 10 N 1.8
Oggi h: 04:50 sereno Sereno 16 15 93 1020 10 N 1.8
Oggi h: 04:20 sereno Sereno 16 15 93 1020 10 N 0
Oggi h: 03:50 sereno Sereno 16 15 93 1020 10 N 3.7
Oggi h: 03:20 sereno Sereno 16 15 93 1020 10 N 3.7
Oggi h: 02:50 sereno Sereno 16 15 93 1020 10 N 3.7
Oggi h: 02:20 sereno Sereno 16 15 93 1020 10 SO 7.4
Oggi h: 01:50 sereno Sereno 17 15 88 1020 10 N 5.5
Oggi h: 01:20 poco_nuvoloso Poco Nuvoloso 17 15 88 1020 10 N 3.7
Oggi h: 00:50 poco_nuvoloso Poco Nuvoloso 17 15 88 1020 10 N 5.5
Oggi h: 00:20 poco_nuvoloso Poco Nuvoloso 17 15 88 1020 10 SO 11.1
Ieri h: 23:50 poco_nuvoloso Poco Nuvoloso 17 15 88 1020 10 N 5.5
Ieri h: 23:20 nuvoloso_piovaschi Pioggia Temporale nelle vicinanze 17 15 88 1020 10 N 9.3
Ieri h: 22:50 nuvoloso_temporali Temporale 18 15 82 1021 6 NO 22.2
Ieri h: 22:20 nuvoloso_temporali Temporale 19 17 88 1019 9 N 20.3
Ieri h: 21:50 molto_nuvoloso Molto Nuvoloso 19 17 88 1019 10 O/NO 13
Ieri h: 21:20 molto_nuvoloso Molto Nuvoloso 19 17 88 1017 10 N 5.5
Ieri h: 20:50 nuvoloso_temporali Temporale 19 16 82 1017 10 N/NO 18.5